Terminal Aerodrome Forecast
Issued by NWS

Current Version | Previous Version | Graphics & Text | Print | Product List | Glossary On
Versions: 1 2 3 4 5 6 7 8 9 10 11 12 13 14 15 16 17 18 19 20 21 22 23 24 25 26 27 28 29 30 31 32
247
FTUS41 KPBZ 211139
TAFHLG
TAF
KHLG 211139Z 2112/2212 19015G20KT P6SM BKN080 WS020/23045KT
     FM211400 22012G22KT P6SM VCSH BKN040
     FM211700 30012G22KT P6SM -SHRA OVC015
     FM211900 30010G20KT 5SM -SHRA OVC008
     FM212200 34010KT 5SM -SHRA OVC015
     FM220000 35008KT P6SM -SHRA OVC035
     FM220700 05010KT 3SM -RA OVC010=

USA.gov is the U.S. government's official web portal to all federal, state and local government web resources and services.